sensor_id;sensor_type;location;lat;lon;timestamp;P1;durP1;ratioP1;P2;durP2;ratioP2
60370;SDS011;48550;40.588;49.684;2023-04-24T00:00:05;5.55;;;3.25;;
60370;SDS011;48550;40.588;49.684;2023-04-24T00:02:32;7.05;;;3.50;;
60370;SDS011;48550;40.588;49.684;2023-04-24T00:04:58;6.68;;;3.75;;
60370;SDS011;48550;40.588;49.684;2023-04-24T00:07:27;7.15;;;3.72;;
60370;SDS011;48550;40.588;49.684;2023-04-24T00:09:52;6.72;;;3.85;;
60370;SDS011;48550;40.588;49.684;2023-04-24T00:12:18;6.93;;;4.10;;
60370;SDS011;48550;40.588;49.684;2023-04-24T00:14:44;7.63;;;3.60;;
60370;SDS011;48550;40.588;49.684;2023-04-24T00:17:09;7.07;;;3.95;;
60370;SDS011;48550;40.588;49.684;2023-04-24T00:19:35;6.30;;;3.60;;
60370;SDS011;48550;40.588;49.684;2023-04-24T00:22:01;8.43;;;4.18;;
60370;SDS011;48550;40.588;49.684;2023-04-24T00:24:27;5.75;;;3.47;;
60370;SDS011;48550;40.588;49.684;2023-04-24T00:26:53;9.02;;;4.30;;
60370;SDS011;48550;40.588;49.684;2023-04-24T00:29:19;9.63;;;4.30;;
60370;SDS011;48550;40.588;49.684;2023-04-24T00:31:44;7.65;;;4.40;;
60370;SDS011;48550;40.588;49.684;2023-04-24T00:34:10;8.02;;;4.00;;
60370;SDS011;48550;40.588;49.684;2023-04-24T00:36:37;8.02;;;4.18;;
60370;SDS011;48550;40.588;49.684;2023-04-24T00:39:03;7.20;;;4.05;;
60370;SDS011;48550;40.588;49.684;2023-04-24T00:41:29;7.65;;;4.22;;
60370;SDS011;48550;40.588;49.684;2023-04-24T00:43:55;10.82;;;5.30;;
60370;SDS011;48550;40.588;49.684;2023-04-24T00:46:21;12.40;;;4.20;;
60370;SDS011;48550;40.588;49.684;2023-04-24T00:48:47;7.95;;;4.38;;
60370;SDS011;48550;40.588;49.684;2023-04-24T00:51:13;9.02;;;4.45;;
60370;SDS011;48550;40.588;49.684;2023-04-24T00:53:38;7.13;;;4.40;;
60370;SDS011;48550;40.588;49.684;2023-04-24T00:56:04;8.25;;;4.10;;
60370;SDS011;48550;40.588;49.684;2023-04-24T00:58:31;8.40;;;4.55;;
60370;SDS011;48550;40.588;49.684;2023-04-24T01:00:57;9.50;;;4.78;;
60370;SDS011;48550;40.588;49.684;2023-04-24T01:03:28;7.85;;;4.80;;
60370;SDS011;48550;40.588;49.684;2023-04-24T01:05:58;7.82;;;4.97;;
60370;SDS011;48550;40.588;49.684;2023-04-24T01:08:25;8.07;;;4.45;;
60370;SDS011;48550;40.588;49.684;2023-04-24T01:10:53;8.75;;;4.32;;
60370;SDS011;48550;40.588;49.684;2023-04-24T01:13:19;8.00;;;4.95;;
60370;SDS011;48550;40.588;49.684;2023-04-24T01:15:46;7.00;;;4.30;;
60370;SDS011;48550;40.588;49.684;2023-04-24T01:18:12;7.55;;;4.93;;
60370;SDS011;48550;40.588;49.684;2023-04-24T01:20:41;9.80;;;5.10;;
60370;SDS011;48550;40.588;49.684;2023-04-24T01:23:09;8.10;;;4.22;;
60370;SDS011;48550;40.588;49.684;2023-04-24T01:25:35;9.98;;;4.78;;
60370;SDS011;48550;40.588;49.684;2023-04-24T01:28:02;8.55;;;5.00;;
60370;SDS011;48550;40.588;49.684;2023-04-24T01:30:28;8.25;;;5.20;;
60370;SDS011;48550;40.588;49.684;2023-04-24T01:32:54;12.48;;;5.82;;
60370;SDS011;48550;40.588;49.684;2023-04-24T01:35:20;12.27;;;5.88;;
60370;SDS011;48550;40.588;49.684;2023-04-24T01:37:46;10.80;;;5.75;;
60370;SDS011;48550;40.588;49.684;2023-04-24T01:40:12;10.98;;;5.80;;
60370;SDS011;48550;40.588;49.684;2023-04-24T01:42:38;9.88;;;5.50;;
60370;SDS011;48550;40.588;49.684;2023-04-24T01:45:06;11.25;;;6.25;;
60370;SDS011;48550;40.588;49.684;2023-04-24T01:47:33;15.10;;;7.00;;
60370;SDS011;48550;40.588;49.684;2023-04-24T01:49:59;12.75;;;7.35;;
60370;SDS011;48550;40.588;49.684;2023-04-24T01:52:24;15.20;;;7.75;;
60370;SDS011;48550;40.588;49.684;2023-04-24T01:54:50;15.45;;;8.00;;
60370;SDS011;48550;40.588;49.684;2023-04-24T01:57:18;18.77;;;8.73;;
60370;SDS011;48550;40.588;49.684;2023-04-24T01:59:44;17.98;;;9.23;;
60370;SDS011;48550;40.588;49.684;2023-04-24T02:02:10;18.80;;;9.50;;
60370;SDS011;48550;40.588;49.684;2023-04-24T02:04:35;20.17;;;9.60;;
60370;SDS011;48550;40.588;49.684;2023-04-24T02:07:01;18.05;;;8.80;;
60370;SDS011;48550;40.588;49.684;2023-04-24T02:09:27;19.30;;;9.90;;
60370;SDS011;48550;40.588;49.684;2023-04-24T02:11:52;19.20;;;10.90;;
60370;SDS011;48550;40.588;49.684;2023-04-24T02:14:18;21.95;;;11.32;;
60370;SDS011;48550;40.588;49.684;2023-04-24T02:16:44;22.27;;;11.43;;
60370;SDS011;48550;40.588;49.684;2023-04-24T02:19:09;23.48;;;10.63;;
60370;SDS011;48550;40.588;49.684;2023-04-24T02:21:35;20.17;;;10.45;;
60370;SDS011;48550;40.588;49.684;2023-04-24T02:24:01;18.92;;;9.52;;
60370;SDS011;48550;40.588;49.684;2023-04-24T02:26:27;19.92;;;9.68;;
60370;SDS011;48550;40.588;49.684;2023-04-24T02:28:52;21.15;;;10.40;;
60370;SDS011;48550;40.588;49.684;2023-04-24T02:31:18;26.60;;;10.43;;
60370;SDS011;48550;40.588;49.684;2023-04-24T02:33:44;17.67;;;9.95;;
60370;SDS011;48550;40.588;49.684;2023-04-24T02:36:10;15.82;;;8.70;;
60370;SDS011;48550;40.588;49.684;2023-04-24T02:38:35;17.73;;;9.23;;
60370;SDS011;48550;40.588;49.684;2023-04-24T02:41:01;22.17;;;10.70;;
60370;SDS011;48550;40.588;49.684;2023-04-24T02:43:29;16.55;;;9.80;;
60370;SDS011;48550;40.588;49.684;2023-04-24T02:45:54;17.65;;;9.63;;
60370;SDS011;48550;40.588;49.684;2023-04-24T02:48:20;14.88;;;8.13;;
60370;SDS011;48550;40.588;49.684;2023-04-24T02:50:46;17.35;;;9.13;;
60370;SDS011;48550;40.588;49.684;2023-04-24T02:53:12;16.73;;;9.15;;
60370;SDS011;48550;40.588;49.684;2023-04-24T02:55:38;20.27;;;9.02;;
60370;SDS011;48550;40.588;49.684;2023-04-24T02:58:04;17.63;;;9.63;;
60370;SDS011;48550;40.588;49.684;2023-04-24T03:00:31;17.88;;;9.10;;
60370;SDS011;48550;40.588;49.684;2023-04-24T03:02:56;20.98;;;9.40;;
60370;SDS011;48550;40.588;49.684;2023-04-24T03:05:22;16.95;;;8.55;;
60370;SDS011;48550;40.588;49.684;2023-04-24T03:07:48;17.92;;;8.85;;
60370;SDS011;48550;40.588;49.684;2023-04-24T03:10:13;23.80;;;8.80;;
60370;SDS011;48550;40.588;49.684;2023-04-24T03:12:39;17.35;;;8.43;;
60370;SDS011;48550;40.588;49.684;2023-04-24T03:15:05;18.42;;;9.00;;
60370;SDS011;48550;40.588;49.684;2023-04-24T03:17:31;19.98;;;9.35;;
60370;SDS011;48550;40.588;49.684;2023-04-24T03:19:57;22.10;;;8.55;;
60370;SDS011;48550;40.588;49.684;2023-04-24T03:22:23;14.93;;;7.97;;
60370;SDS011;48550;40.588;49.684;2023-04-24T03:24:49;18.30;;;7.80;;
60370;SDS011;48550;40.588;49.684;2023-04-24T03:27:14;13.55;;;7.43;;
60370;SDS011;48550;40.588;49.684;2023-04-24T03:29:40;10.25;;;5.22;;
60370;SDS011;48550;40.588;49.684;2023-04-24T03:32:06;10.57;;;5.03;;
60370;SDS011;48550;40.588;49.684;2023-04-24T03:34:31;12.10;;;5.30;;
60370;SDS011;48550;40.588;49.684;2023-04-24T03:36:57;10.23;;;5.50;;
60370;SDS011;48550;40.588;49.684;2023-04-24T03:39:23;10.65;;;4.82;;
60370;SDS011;48550;40.588;49.684;2023-04-24T03:41:50;9.90;;;5.30;;
60370;SDS011;48550;40.588;49.684;2023-04-24T03:44:15;8.98;;;5.55;;
60370;SDS011;48550;40.588;49.684;2023-04-24T03:46:41;11.38;;;5.13;;
60370;SDS011;48550;40.588;49.684;2023-04-24T03:49:07;13.90;;;5.10;;
60370;SDS011;48550;40.588;49.684;2023-04-24T03:51:32;15.60;;;5.05;;
60370;SDS011;48550;40.588;49.684;2023-04-24T03:53:58;11.13;;;4.68;;
60370;SDS011;48550;40.588;49.684;2023-04-24T03:56:24;12.10;;;4.18;;
60370;SDS011;48550;40.588;49.684;2023-04-24T03:58:50;7.15;;;3.97;;
60370;SDS011;48550;40.588;49.684;2023-04-24T04:01:15;9.43;;;3.70;;
60370;SDS011;48550;40.588;49.684;2023-04-24T04:03:41;8.00;;;3.42;;
60370;SDS011;48550;40.588;49.684;2023-04-24T04:06:07;11.07;;;4.15;;
60370;SDS011;48550;40.588;49.684;2023-04-24T04:08:33;6.80;;;3.63;;
60370;SDS011;48550;40.588;49.684;2023-04-24T04:10:58;5.43;;;3.20;;
60370;SDS011;48550;40.588;49.684;2023-04-24T04:13:24;7.85;;;3.08;;
60370;SDS011;48550;40.588;49.684;2023-04-24T04:15:50;9.05;;;2.97;;
60370;SDS011;48550;40.588;49.684;2023-04-24T04:18:15;7.22;;;2.90;;
60370;SDS011;48550;40.588;49.684;2023-04-24T04:20:42;5.95;;;3.20;;
60370;SDS011;48550;40.588;49.684;2023-04-24T04:23:09;6.85;;;2.65;;
60370;SDS011;48550;40.588;49.684;2023-04-24T04:25:34;7.20;;;3.10;;
60370;SDS011;48550;40.588;49.684;2023-04-24T04:28:00;10.75;;;4.00;;
60370;SDS011;48550;40.588;49.684;2023-04-24T04:30:27;7.07;;;3.38;;
60370;SDS011;48550;40.588;49.684;2023-04-24T04:32:54;4.43;;;2.42;;
60370;SDS011;48550;40.588;49.684;2023-04-24T04:35:20;4.28;;;2.47;;
60370;SDS011;48550;40.588;49.684;2023-04-24T04:37:46;10.15;;;2.55;;
60370;SDS011;48550;40.588;49.684;2023-04-24T04:40:11;5.10;;;2.30;;
60370;SDS011;48550;40.588;49.684;2023-04-24T04:42:37;5.53;;;2.50;;
60370;SDS011;48550;40.588;49.684;2023-04-24T04:45:07;5.57;;;2.47;;
60370;SDS011;48550;40.588;49.684;2023-04-24T04:47:37;8.27;;;2.70;;
60370;SDS011;48550;40.588;49.684;2023-04-24T04:50:04;9.80;;;3.38;;
60370;SDS011;48550;40.588;49.684;2023-04-24T04:52:31;9.75;;;4.57;;
60370;SDS011;48550;40.588;49.684;2023-04-24T04:54:56;4.50;;;2.15;;
60370;SDS011;48550;40.588;49.684;2023-04-24T04:57:22;4.03;;;2.45;;
60370;SDS011;48550;40.588;49.684;2023-04-24T04:59:48;3.25;;;2.20;;
60370;SDS011;48550;40.588;49.684;2023-04-24T05:02:13;5.55;;;3.22;;
60370;SDS011;48550;40.588;49.684;2023-04-24T05:04:40;5.22;;;2.65;;
60370;SDS011;48550;40.588;49.684;2023-04-24T05:07:05;13.73;;;8.00;;
60370;SDS011;48550;40.588;49.684;2023-04-24T05:09:31;5.85;;;2.38;;
60370;SDS011;48550;40.588;49.684;2023-04-24T05:11:57;6.65;;;2.70;;
60370;SDS011;48550;40.588;49.684;2023-04-24T05:14:22;6.43;;;2.28;;
60370;SDS011;48550;40.588;49.684;2023-04-24T05:16:48;4.88;;;2.00;;
60370;SDS011;48550;40.588;49.684;2023-04-24T05:19:14;6.35;;;2.40;;
60370;SDS011;48550;40.588;49.684;2023-04-24T05:21:42;3.85;;;1.90;;
60370;SDS011;48550;40.588;49.684;2023-04-24T05:24:08;3.10;;;1.90;;
60370;SDS011;48550;40.588;49.684;2023-04-24T05:26:34;7.20;;;3.22;;
60370;SDS011;48550;40.588;49.684;2023-04-24T05:29:01;7.53;;;2.58;;
60370;SDS011;48550;40.588;49.684;2023-04-24T05:31:27;3.83;;;2.00;;
60370;SDS011;48550;40.588;49.684;2023-04-24T05:33:53;6.07;;;1.80;;
60370;SDS011;48550;40.588;49.684;2023-04-24T05:36:18;4.20;;;2.10;;
60370;SDS011;48550;40.588;49.684;2023-04-24T05:38:44;9.43;;;2.05;;
60370;SDS011;48550;40.588;49.684;2023-04-24T05:41:10;6.63;;;2.15;;
60370;SDS011;48550;40.588;49.684;2023-04-24T05:43:36;8.93;;;2.00;;
60370;SDS011;48550;40.588;49.684;2023-04-24T05:46:01;7.10;;;2.30;;
60370;SDS011;48550;40.588;49.684;2023-04-24T05:48:27;3.50;;;2.08;;
60370;SDS011;48550;40.588;49.684;2023-04-24T05:50:53;7.40;;;4.53;;
60370;SDS011;48550;40.588;49.684;2023-04-24T05:53:19;6.35;;;2.10;;
60370;SDS011;48550;40.588;49.684;2023-04-24T05:55:45;7.80;;;2.40;;
60370;SDS011;48550;40.588;49.684;2023-04-24T05:58:11;8.32;;;2.55;;
60370;SDS011;48550;40.588;49.684;2023-04-24T06:00:37;3.75;;;1.90;;
60370;SDS011;48550;40.588;49.684;2023-04-24T06:03:04;8.00;;;2.50;;
60370;SDS011;48550;40.588;49.684;2023-04-24T06:05:30;6.45;;;2.15;;
60370;SDS011;48550;40.588;49.684;2023-04-24T06:07:56;6.15;;;3.10;;
60370;SDS011;48550;40.588;49.684;2023-04-24T06:10:22;5.97;;;2.42;;
60370;SDS011;48550;40.588;49.684;2023-04-24T06:12:48;8.25;;;2.38;;
60370;SDS011;48550;40.588;49.684;2023-04-24T06:15:14;6.47;;;2.45;;
60370;SDS011;48550;40.588;49.684;2023-04-24T06:17:39;6.57;;;2.15;;
60370;SDS011;48550;40.588;49.684;2023-04-24T06:20:05;5.78;;;2.10;;
60370;SDS011;48550;40.588;49.684;2023-04-24T06:22:33;7.35;;;2.30;;
60370;SDS011;48550;40.588;49.684;2023-04-24T06:24:59;6.10;;;2.30;;
60370;SDS011;48550;40.588;49.684;2023-04-24T06:27:25;12.00;;;2.67;;
60370;SDS011;48550;40.588;49.684;2023-04-24T06:29:51;6.13;;;2.28;;
60370;SDS011;48550;40.588;49.684;2023-04-24T06:32:21;7.85;;;2.63;;
60370;SDS011;48550;40.588;49.684;2023-04-24T06:34:47;10.23;;;2.80;;
60370;SDS011;48550;40.588;49.684;2023-04-24T06:37:13;9.30;;;2.88;;
60370;SDS011;48550;40.588;49.684;2023-04-24T06:39:40;5.75;;;2.95;;
60370;SDS011;48550;40.588;49.684;2023-04-24T06:42:06;6.97;;;3.47;;
60370;SDS011;48550;40.588;49.684;2023-04-24T06:44:33;5.90;;;2.90;;
60370;SDS011;48550;40.588;49.684;2023-04-24T06:47:02;9.20;;;3.50;;
60370;SDS011;48550;40.588;49.684;2023-04-24T06:49:28;10.38;;;3.92;;
60370;SDS011;48550;40.588;49.684;2023-04-24T06:51:54;8.15;;;3.35;;
60370;SDS011;48550;40.588;49.684;2023-04-24T06:54:20;5.53;;;2.90;;
60370;SDS011;48550;40.588;49.684;2023-04-24T06:56:45;6.70;;;2.42;;
60370;SDS011;48550;40.588;49.684;2023-04-24T06:59:12;6.07;;;2.40;;
60370;SDS011;48550;40.588;49.684;2023-04-24T07:01:38;5.95;;;2.10;;
60370;SDS011;48550;40.588;49.684;2023-04-24T07:04:04;4.53;;;2.20;;
60370;SDS011;48550;40.588;49.684;2023-04-24T07:06:29;6.80;;;2.63;;
60370;SDS011;48550;40.588;49.684;2023-04-24T07:08:55;5.38;;;3.00;;
60370;SDS011;48550;40.588;49.684;2023-04-24T07:11:21;10.02;;;3.03;;
60370;SDS011;48550;40.588;49.684;2023-04-24T07:13:47;5.45;;;2.85;;
60370;SDS011;48550;40.588;49.684;2023-04-24T07:16:12;6.78;;;2.45;;
60370;SDS011;48550;40.588;49.684;2023-04-24T07:18:38;4.70;;;2.60;;
60370;SDS011;48550;40.588;49.684;2023-04-24T07:21:04;4.93;;;2.35;;
60370;SDS011;48550;40.588;49.684;2023-04-24T07:23:31;4.85;;;2.17;;
60370;SDS011;48550;40.588;49.684;2023-04-24T07:25:57;4.80;;;2.58;;
60370;SDS011;48550;40.588;49.684;2023-04-24T07:28:22;4.85;;;2.38;;
60370;SDS011;48550;40.588;49.684;2023-04-24T07:30:48;7.65;;;2.13;;
60370;SDS011;48550;40.588;49.684;2023-04-24T07:33:14;5.20;;;2.15;;
60370;SDS011;48550;40.588;49.684;2023-04-24T07:35:39;5.45;;;2.25;;
60370;SDS011;48550;40.588;49.684;2023-04-24T07:38:05;8.60;;;3.55;;
60370;SDS011;48550;40.588;49.684;2023-04-24T07:40:31;5.68;;;2.38;;
60370;SDS011;48550;40.588;49.684;2023-04-24T07:42:56;4.05;;;2.45;;
60370;SDS011;48550;40.588;49.684;2023-04-24T07:45:22;5.30;;;2.20;;
60370;SDS011;48550;40.588;49.684;2023-04-24T07:47:51;8.10;;;2.60;;
60370;SDS011;48550;40.588;49.684;2023-04-24T07:50:17;3.15;;;1.75;;
60370;SDS011;48550;40.588;49.684;2023-04-24T07:52:42;4.45;;;2.10;;
60370;SDS011;48550;40.588;49.684;2023-04-24T07:55:08;6.07;;;2.30;;
60370;SDS011;48550;40.588;49.684;2023-04-24T07:57:34;10.00;;;2.30;;
60370;SDS011;48550;40.588;49.684;2023-04-24T08:00:00;4.82;;;2.03;;
60370;SDS011;48550;40.588;49.684;2023-04-24T08:02:26;6.10;;;2.72;;
60370;SDS011;48550;40.588;49.684;2023-04-24T08:04:52;6.55;;;2.47;;
60370;SDS011;48550;40.588;49.684;2023-04-24T08:07:21;5.00;;;2.40;;
60370;SDS011;48550;40.588;49.684;2023-04-24T08:09:47;5.20;;;2.65;;
60370;SDS011;48550;40.588;49.684;2023-04-24T08:12:12;5.45;;;2.30;;
60370;SDS011;48550;40.588;49.684;2023-04-24T08:14:38;6.28;;;2.22;;
60370;SDS011;48550;40.588;49.684;2023-04-24T08:17:04;4.10;;;2.30;;
60370;SDS011;48550;40.588;49.684;2023-04-24T08:19:30;6.28;;;2.88;;
60370;SDS011;48550;40.588;49.684;2023-04-24T08:21:55;3.45;;;2.10;;
60370;SDS011;48550;40.588;49.684;2023-04-24T08:24:21;8.13;;;2.42;;
60370;SDS011;48550;40.588;49.684;2023-04-24T08:26:47;7.00;;;2.63;;
60370;SDS011;48550;40.588;49.684;2023-04-24T08:29:17;6.15;;;2.60;;
60370;SDS011;48550;40.588;49.684;2023-04-24T08:31:42;5.45;;;2.78;;
60370;SDS011;48550;40.588;49.684;2023-04-24T08:34:09;7.35;;;2.80;;
60370;SDS011;48550;40.588;49.684;2023-04-24T08:36:35;7.03;;;2.28;;
60370;SDS011;48550;40.588;49.684;2023-04-24T08:39:02;4.93;;;2.60;;
60370;SDS011;48550;40.588;49.684;2023-04-24T08:41:28;6.43;;;2.50;;
60370;SDS011;48550;40.588;49.684;2023-04-24T08:43:53;6.65;;;2.25;;
60370;SDS011;48550;40.588;49.684;2023-04-24T08:46:23;8.75;;;2.35;;
60370;SDS011;48550;40.588;49.684;2023-04-24T08:48:52;7.15;;;2.80;;
60370;SDS011;48550;40.588;49.684;2023-04-24T08:51:18;7.05;;;2.90;;
60370;SDS011;48550;40.588;49.684;2023-04-24T08:53:45;6.10;;;2.50;;
60370;SDS011;48550;40.588;49.684;2023-04-24T08:56:12;6.82;;;2.83;;
60370;SDS011;48550;40.588;49.684;2023-04-24T08:58:38;4.20;;;2.35;;
60370;SDS011;48550;40.588;49.684;2023-04-24T09:01:04;7.43;;;2.55;;
60370;SDS011;48550;40.588;49.684;2023-04-24T09:03:31;6.78;;;2.45;;
60370;SDS011;48550;40.588;49.684;2023-04-24T09:05:58;5.63;;;2.42;;
60370;SDS011;48550;40.588;49.684;2023-04-24T09:08:25;6.13;;;3.03;;
60370;SDS011;48550;40.588;49.684;2023-04-24T09:10:53;14.18;;;3.78;;
60370;SDS011;48550;40.588;49.684;2023-04-24T09:13:22;8.10;;;3.60;;
60370;SDS011;48550;40.588;49.684;2023-04-24T09:15:48;11.38;;;3.65;;
60370;SDS011;48550;40.588;49.684;2023-04-24T09:18:14;12.45;;;3.55;;
60370;SDS011;48550;40.588;49.684;2023-04-24T09:20:58;10.63;;;3.83;;
60370;SDS011;48550;40.588;49.684;2023-04-24T09:23:26;10.70;;;2.70;;
60370;SDS011;48550;40.588;49.684;2023-04-24T09:25:56;9.60;;;2.40;;
60370;SDS011;48550;40.588;49.684;2023-04-24T09:28:29;5.30;;;2.58;;
60370;SDS011;48550;40.588;49.684;2023-04-24T09:33:39;10.68;;;3.78;;
60370;SDS011;48550;40.588;49.684;2023-04-24T09:36:05;7.22;;;3.15;;
60370;SDS011;48550;40.588;49.684;2023-04-24T09:38:38;7.18;;;3.00;;
60370;SDS011;48550;40.588;49.684;2023-04-24T09:41:07;9.13;;;3.20;;
60370;SDS011;48550;40.588;49.684;2023-04-24T09:43:38;8.52;;;3.17;;
60370;SDS011;48550;40.588;49.684;2023-04-24T09:46:07;9.55;;;2.70;;
60370;SDS011;48550;40.588;49.684;2023-04-24T09:48:37;9.15;;;3.28;;
60370;SDS011;48550;40.588;49.684;2023-04-24T09:51:05;10.10;;;3.70;;
60370;SDS011;48550;40.588;49.684;2023-04-24T09:53:35;12.20;;;3.97;;
60370;SDS011;48550;40.588;49.684;2023-04-24T09:56:07;10.90;;;3.97;;
60370;SDS011;48550;40.588;49.684;2023-04-24T09:58:35;11.90;;;3.90;;
60370;SDS011;48550;40.588;49.684;2023-04-24T10:01:01;13.27;;;4.22;;
60370;SDS011;48550;40.588;49.684;2023-04-24T10:03:31;14.05;;;4.47;;
60370;SDS011;48550;40.588;49.684;2023-04-24T10:06:00;11.32;;;3.85;;
60370;SDS011;48550;40.588;49.684;2023-04-24T10:08:33;14.15;;;4.78;;
60370;SDS011;48550;40.588;49.684;2023-04-24T10:13:26;12.85;;;3.53;;
60370;SDS011;48550;40.588;49.684;2023-04-24T10:15:53;17.30;;;4.10;;
60370;SDS011;48550;40.588;49.684;2023-04-24T10:18:20;13.68;;;4.00;;
60370;SDS011;48550;40.588;49.684;2023-04-24T10:20:46;20.65;;;4.82;;
60370;SDS011;48550;40.588;49.684;2023-04-24T10:23:12;10.85;;;3.90;;
60370;SDS011;48550;40.588;49.684;2023-04-24T10:25:38;17.02;;;4.15;;
60370;SDS011;48550;40.588;49.684;2023-04-24T10:28:04;14.93;;;4.22;;
60370;SDS011;48550;40.588;49.684;2023-04-24T10:30:31;13.40;;;4.03;;
60370;SDS011;48550;40.588;49.684;2023-04-24T10:33:02;11.82;;;4.18;;
60370;SDS011;48550;40.588;49.684;2023-04-24T10:35:32;11.77;;;4.38;;
60370;SDS011;48550;40.588;49.684;2023-04-24T10:38:05;12.57;;;4.03;;
60370;SDS011;48550;40.588;49.684;2023-04-24T10:40:34;15.52;;;3.83;;
60370;SDS011;48550;40.588;49.684;2023-04-24T10:43:04;21.67;;;4.38;;
60370;SDS011;48550;40.588;49.684;2023-04-24T10:45:33;14.27;;;4.13;;
60370;SDS011;48550;40.588;49.684;2023-04-24T10:48:03;19.35;;;4.28;;
60370;SDS011;48550;40.588;49.684;2023-04-24T10:50:44;10.73;;;4.68;;
60370;SDS011;48550;40.588;49.684;2023-04-24T10:53:15;13.05;;;4.30;;
60370;SDS011;48550;40.588;49.684;2023-04-24T10:58:09;16.23;;;4.25;;
60370;SDS011;48550;40.588;49.684;2023-04-24T11:00:36;12.40;;;3.72;;
60370;SDS011;48550;40.588;49.684;2023-04-24T11:03:50;14.13;;;4.82;;
60370;SDS011;48550;40.588;49.684;2023-04-24T11:06:02;14.30;;;3.78;;
60370;SDS011;48550;40.588;49.684;2023-04-24T11:08:36;15.15;;;4.05;;
60370;SDS011;48550;40.588;49.684;2023-04-24T11:11:13;12.50;;;4.20;;
60370;SDS011;48550;40.588;49.684;2023-04-24T11:21:47;12.50;;;4.13;;
60370;SDS011;48550;40.588;49.684;2023-04-24T11:29:38;12.23;;;4.47;;
60370;SDS011;48550;40.588;49.684;2023-04-24T11:34:50;13.57;;;4.88;;
60370;SDS011;48550;40.588;49.684;2023-04-24T11:37:18;9.65;;;3.65;;
60370;SDS011;48550;40.588;49.684;2023-04-24T11:39:43;10.18;;;3.60;;
60370;SDS011;48550;40.588;49.684;2023-04-24T11:42:09;12.02;;;3.97;;
60370;SDS011;48550;40.588;49.684;2023-04-24T11:44:35;13.23;;;3.80;;
60370;SDS011;48550;40.588;49.684;2023-04-24T11:47:05;16.20;;;6.43;;
60370;SDS011;48550;40.588;49.684;2023-04-24T11:49:32;16.42;;;4.70;;
60370;SDS011;48550;40.588;49.684;2023-04-24T11:51:59;16.65;;;6.95;;
60370;SDS011;48550;40.588;49.684;2023-04-24T11:54:26;14.80;;;4.15;;
60370;SDS011;48550;40.588;49.684;2023-04-24T11:56:52;14.00;;;4.63;;
60370;SDS011;48550;40.588;49.684;2023-04-24T11:59:18;18.60;;;4.28;;
60370;SDS011;48550;40.588;49.684;2023-04-24T12:01:46;11.70;;;4.03;;
60370;SDS011;48550;40.588;49.684;2023-04-24T12:04:14;17.55;;;4.95;;
60370;SDS011;48550;40.588;49.684;2023-04-24T12:07:02;19.30;;;4.55;;
60370;SDS011;48550;40.588;49.684;2023-04-24T12:09:28;17.42;;;4.70;;
60370;SDS011;48550;40.588;49.684;2023-04-24T12:11:54;12.30;;;3.85;;
60370;SDS011;48550;40.588;49.684;2023-04-24T12:14:22;19.52;;;7.57;;
60370;SDS011;48550;40.588;49.684;2023-04-24T12:16:51;15.25;;;5.55;;
60370;SDS011;48550;40.588;49.684;2023-04-24T12:19:20;12.10;;;4.60;;
60370;SDS011;48550;40.588;49.684;2023-04-24T12:22:03;19.33;;;4.63;;
60370;SDS011;48550;40.588;49.684;2023-04-24T12:24:31;17.98;;;5.50;;
60370;SDS011;48550;40.588;49.684;2023-04-24T12:26:57;15.65;;;4.10;;
60370;SDS011;48550;40.588;49.684;2023-04-24T12:29:24;18.05;;;4.13;;
60370;SDS011;48550;40.588;49.684;2023-04-24T12:31:50;13.70;;;4.78;;
60370;SDS011;48550;40.588;49.684;2023-04-24T12:34:20;17.17;;;4.85;;
60370;SDS011;48550;40.588;49.684;2023-04-24T12:36:51;11.50;;;5.03;;
60370;SDS011;48550;40.588;49.684;2023-04-24T12:39:17;16.80;;;4.75;;
60370;SDS011;48550;40.588;49.684;2023-04-24T12:42:17;17.30;;;5.20;;
60370;SDS011;48550;40.588;49.684;2023-04-24T12:44:36;15.68;;;5.15;;
60370;SDS011;48550;40.588;49.684;2023-04-24T12:47:02;16.02;;;5.50;;
60370;SDS011;48550;40.588;49.684;2023-04-24T12:49:31;26.17;;;16.33;;
60370;SDS011;48550;40.588;49.684;2023-04-24T12:51:58;13.68;;;4.38;;
60370;SDS011;48550;40.588;49.684;2023-04-24T12:54:23;18.08;;;5.70;;
60370;SDS011;48550;40.588;49.684;2023-04-24T12:56:49;13.20;;;4.90;;
60370;SDS011;48550;40.588;49.684;2023-04-24T12:59:15;15.75;;;5.35;;
60370;SDS011;48550;40.588;49.684;2023-04-24T13:01:41;19.73;;;4.72;;
60370;SDS011;48550;40.588;49.684;2023-04-24T13:04:09;14.88;;;4.70;;
60370;SDS011;48550;40.588;49.684;2023-04-24T13:06:35;17.55;;;5.55;;
60370;SDS011;48550;40.588;49.684;2023-04-24T13:09:01;14.02;;;4.38;;
60370;SDS011;48550;40.588;49.684;2023-04-24T13:11:26;14.10;;;5.40;;
60370;SDS011;48550;40.588;49.684;2023-04-24T13:13:52;15.48;;;6.63;;
60370;SDS011;48550;40.588;49.684;2023-04-24T13:16:18;12.13;;;5.15;;
60370;SDS011;48550;40.588;49.684;2023-04-24T13:18:43;19.08;;;5.47;;
60370;SDS011;48550;40.588;49.684;2023-04-24T13:21:10;15.80;;;5.03;;
60370;SDS011;48550;40.588;49.684;2023-04-24T13:23:35;18.30;;;4.97;;
60370;SDS011;48550;40.588;49.684;2023-04-24T13:26:04;19.20;;;5.53;;
60370;SDS011;48550;40.588;49.684;2023-04-24T13:28:30;20.15;;;5.32;;
60370;SDS011;48550;40.588;49.684;2023-04-24T13:30:56;17.67;;;6.28;;
60370;SDS011;48550;40.588;49.684;2023-04-24T13:33:21;18.20;;;4.80;;
60370;SDS011;48550;40.588;49.684;2023-04-24T13:35:47;15.05;;;5.50;;
60370;SDS011;48550;40.588;49.684;2023-04-24T13:38:13;16.40;;;5.05;;
60370;SDS011;48550;40.588;49.684;2023-04-24T13:40:38;16.15;;;5.50;;
60370;SDS011;48550;40.588;49.684;2023-04-24T13:43:04;18.80;;;4.90;;
60370;SDS011;48550;40.588;49.684;2023-04-24T13:45:30;22.60;;;5.35;;
60370;SDS011;48550;40.588;49.684;2023-04-24T13:47:55;14.77;;;4.95;;
60370;SDS011;48550;40.588;49.684;2023-04-24T13:50:22;13.77;;;5.72;;
60370;SDS011;48550;40.588;49.684;2023-04-24T13:52:48;15.50;;;5.72;;
60370;SDS011;48550;40.588;49.684;2023-04-24T13:55:14;14.88;;;5.35;;
60370;SDS011;48550;40.588;49.684;2023-04-24T13:57:40;13.75;;;5.25;;
60370;SDS011;48550;40.588;49.684;2023-04-24T14:00:06;12.93;;;4.97;;
60370;SDS011;48550;40.588;49.684;2023-04-24T14:02:35;18.38;;;6.03;;
60370;SDS011;48550;40.588;49.684;2023-04-24T14:05:01;24.40;;;7.50;;
60370;SDS011;48550;40.588;49.684;2023-04-24T14:07:28;24.45;;;7.80;;
60370;SDS011;48550;40.588;49.684;2023-04-24T14:09:54;27.58;;;7.80;;
60370;SDS011;48550;40.588;49.684;2023-04-24T14:12:20;19.58;;;7.65;;
60370;SDS011;48550;40.588;49.684;2023-04-24T14:14:46;23.52;;;7.55;;
60370;SDS011;48550;40.588;49.684;2023-04-24T14:17:13;17.30;;;7.63;;
60370;SDS011;48550;40.588;49.684;2023-04-24T14:19:39;17.10;;;6.10;;
60370;SDS011;48550;40.588;49.684;2023-04-24T14:22:05;24.60;;;6.63;;
60370;SDS011;48550;40.588;49.684;2023-04-24T14:24:31;14.55;;;5.55;;
60370;SDS011;48550;40.588;49.684;2023-04-24T14:26:57;15.32;;;5.40;;
60370;SDS011;48550;40.588;49.684;2023-04-24T14:29:22;22.08;;;8.13;;
60370;SDS011;48550;40.588;49.684;2023-04-24T14:31:49;16.60;;;4.97;;
60370;SDS011;48550;40.588;49.684;2023-04-24T14:34:14;18.38;;;5.97;;
60370;SDS011;48550;40.588;49.684;2023-04-24T14:36:40;17.50;;;5.38;;
60370;SDS011;48550;40.588;49.684;2023-04-24T14:39:07;20.33;;;5.47;;
60370;SDS011;48550;40.588;49.684;2023-04-24T14:41:33;23.13;;;6.68;;
60370;SDS011;48550;40.588;49.684;2023-04-24T14:44:01;25.27;;;8.15;;
60370;SDS011;48550;40.588;49.684;2023-04-24T14:46:28;17.10;;;5.72;;
60370;SDS011;48550;40.588;49.684;2023-04-24T14:48:55;28.25;;;10.95;;